TimePDT,TemperatureF,Dew PointF,Humidity,Sea Level PressureIn,VisibilityMPH,Wind Direction,Wind SpeedMPH,Gust SpeedMPH,PrecipitationIn,Events,Conditions,WindDirDegrees,DateUTC
12:53 AM,37.0,34.0,89,30.22,10.0,Calm,Calm,-,N/A,,Clear,0,2012-10-18 07:53:00
1:53 AM,39.9,33.1,77,30.20,10.0,North,8.1,-,N/A,,Clear,10,2012-10-18 08:53:00
2:53 AM,35.1,30.9,85,30.20,10.0,Calm,Calm,-,N/A,,Clear,0,2012-10-18 09:53:00
3:53 AM,33.1,30.0,89,30.19,10.0,Calm,Calm,-,N/A,,Clear,0,2012-10-18 10:53:00
4:53 AM,30.0,27.0,88,30.19,10.0,Calm,Calm,-,N/A,,Clear,0,2012-10-18 11:53:00
5:53 AM,32.0,27.0,82,30.20,10.0,Calm,Calm,-,N/A,,Clear,0,2012-10-18 12:53:00
6:01 AM,33.8,26.6,75,30.22,7.0,Calm,Calm,-,N/A,,Clear,0,2012-10-18 13:01:00
6:53 AM,30.0,27.0,88,30.22,7.0,Calm,Calm,-,N/A,,Clear,0,2012-10-18 13:53:00
7:53 AM,30.0,27.0,88,30.24,10.0,Calm,Calm,-,N/A,,Scattered Clouds,0,2012-10-18 14:53:00
8:53 AM,39.0,32.0,76,30.22,10.0,Calm,Calm,-,N/A,,Mostly Cloudy,0,2012-10-18 15:53:00
9:53 AM,45.0,35.1,68,30.20,10.0,Calm,Calm,-,N/A,,Mostly Cloudy,0,2012-10-18 16:53:00
10:53 AM,52.0,33.1,49,30.17,10.0,NW,5.8,-,N/A,,Mostly Cloudy,320,2012-10-18 17:53:00
11:53 AM,55.9,30.9,39,30.14,10.0,Variable,4.6,-,N/A,,Mostly Cloudy,0,2012-10-18 18:53:00
12:53 PM,62.1,30.9,31,30.12,10.0,NE,3.5,-,N/A,,Mostly Cloudy,50,2012-10-18 19:53:00
1:53 PM,64.9,27.0,24,30.08,10.0,Calm,Calm,-,N/A,,Mostly Cloudy,0,2012-10-18 20:53:00
2:53 PM,68.0,26.1,21,30.06,10.0,Calm,Calm,-,N/A,,Mostly Cloudy,0,2012-10-18 21:53:00
3:53 PM,70.0,27.0,20,30.04,10.0,Calm,Calm,-,N/A,,Mostly Cloudy,0,2012-10-18 22:53:00
4:53 PM,72.0,28.0,20,30.03,10.0,Calm,Calm,-,N/A,,Mostly Cloudy,0,2012-10-18 23:53:00
5:53 PM,66.0,36.0,33,30.03,10.0,Calm,Calm,-,N/A,,Mostly Cloudy,0,2012-10-19 00:53:00
6:53 PM,54.0,39.0,57,30.06,10.0,Calm,Calm,-,N/A,,Mostly Cloudy,0,2012-10-19 01:53:00
7:53 PM,52.0,37.0,57,30.08,10.0,Calm,Calm,-,N/A,,Mostly Cloudy,0,2012-10-19 02:53:00
8:53 PM,48.9,37.0,64,30.08,10.0,SE,3.5,-,N/A,,Mostly Cloudy,130,2012-10-19 03:53:00
9:53 PM,44.1,37.0,76,30.08,10.0,Calm,Calm,-,N/A,,Mostly Cloudy,0,2012-10-19 04:53:00
10:53 PM,43.0,36.0,76,30.07,10.0,Calm,Calm,-,N/A,,Clear,0,2012-10-19 05:53:00
11:53 PM,42.1,35.1,76,30.08,10.0,West,3.5,-,N/A,,Clear,270,2012-10-19 06:53:00